Time,TemperatureF,DewpointF,PressureIn,WindDirection,WindDirectionDegrees,WindSpeedMPH,WindSpeedGustMPH,Humidity,HourlyPrecipIn,Conditions,Clouds,dailyrainin,SoftwareType,DateUTC
2013-03-23 00:00:00,60.7,20.4,29.91,North,355,6.0,11.0,21,0.00,,,0.00,WUHU216DAVISVP2,2013-03-23 07:00:00,
2013-03-23 00:05:00,60.5,20.3,29.91,NNE,17,5.0,11.0,21,0.00,,,0.00,WUHU216DAVISVP2,2013-03-23 07:05:00,
2013-03-23 00:10:00,60.2,20.0,29.91,North,355,0.0,11.0,21,0.00,,,0.00,WUHU216DAVISVP2,2013-03-23 07:10:00,
2013-03-23 00:15:00,60.0,19.9,29.91,North,355,2.0,9.0,21,0.00,,,0.00,WUHU216DAVISVP2,2013-03-23 07:15:00,
2013-03-23 00:20:00,59.8,20.8,29.91,North,355,1.0,6.0,22,0.00,,,0.00,WUHU216DAVISVP2,2013-03-23 07:20:00,
2013-03-23 00:25:00,59.5,19.4,29.90,NNE,17,2.0,6.0,21,0.00,,,0.00,WUHU216DAVISVP2,2013-03-23 07:25:00,
2013-03-23 00:30:00,59.4,20.4,29.91,NW,309,1.0,6.0,22,0.00,,,0.00,WUHU216DAVISVP2,2013-03-23 07:30:00,
2013-03-23 00:35:00,59.1,20.2,29.91,NW,316,0.0,4.0,22,0.00,,,0.00,WUHU216DAVISVP2,2013-03-23 07:35:00,
2013-03-23 00:40:00,58.8,20.9,29.91,East,98,0.0,4.0,23,0.00,,,0.00,WUHU216DAVISVP2,2013-03-23 07:40:00,
2013-03-23 00:45:00,58.4,20.6,29.91,NNW,340,0.0,4.0,23,0.00,,,0.00,WUHU216DAVISVP2,2013-03-23 07:45:00,
2013-03-23 00:50:00,58.1,20.4,29.91,NNW,338,1.0,4.0,23,0.00,,,0.00,WUHU216DAVISVP2,2013-03-23 07:50:00,
2013-03-23 00:55:00,58.4,18.5,29.90,North,360,3.0,9.0,21,0.00,,,0.00,WUHU216DAVISVP2,2013-03-23 07:55:00,
2013-03-23 01:00:00,59.1,19.1,29.91,North,360,1.0,12.0,21,0.00,,,0.00,WUHU216DAVISVP2,2013-03-23 08:00:00,
2013-03-23 01:05:00,59.5,18.3,29.90,NE,37,5.0,12.0,20,0.00,,,0.00,WUHU216DAVISVP2,2013-03-23 08:05:00,
2013-03-23 01:10:00,59.9,18.6,29.90,NW,324,2.0,12.0,20,0.00,,,0.00,WUHU216DAVISVP2,2013-03-23 08:10:00,
2013-03-23 01:15:00,60.2,18.9,29.90,North,355,3.0,13.0,20,0.00,,,0.00,WUHU216DAVISVP2,2013-03-23 08:15:00,
2013-03-23 01:20:00,60.5,19.1,29.91,NW,316,1.0,13.0,20,0.00,,,0.00,WUHU216DAVISVP2,2013-03-23 08:20:00,
2013-03-23 01:25:00,60.8,19.4,29.90,NW,315,2.0,13.0,20,0.00,,,0.00,WUHU216DAVISVP2,2013-03-23 08:25:00,
2013-03-23 01:30:00,60.9,20.6,29.90,NW,325,2.0,11.0,21,0.00,,,0.00,WUHU216DAVISVP2,2013-03-23 08:30:00,
2013-03-23 01:35:00,60.9,20.7,29.89,NNE,17,1.0,11.0,21,0.00,,,0.00,WUHU216DAVISVP2,2013-03-23 08:35:00,
2013-03-23 01:40:00,60.9,20.6,29.89,NE,36,5.0,10.0,21,0.00,,,0.00,WUHU216DAVISVP2,2013-03-23 08:40:00,
2013-03-23 01:45:00,60.7,20.4,29.90,ENE,69,0.0,10.0,21,0.00,,,0.00,WUHU216DAVISVP2,2013-03-23 08:45:00,
2013-03-23 01:50:00,60.7,21.5,29.90,SSE,156,0.0,8.0,22,0.00,,,0.00,WUHU216DAVISVP2,2013-03-23 08:50:00,
2013-03-23 01:55:00,60.4,22.3,29.91,SSW,201,1.0,7.0,23,0.00,,,0.00,WUHU216DAVISVP2,2013-03-23 08:55:00,
2013-03-23 02:00:00,59.8,21.9,29.91,SSW,200,0.0,5.0,23,0.00,,,0.00,WUHU216DAVISVP2,2013-03-23 09:00:00,
2013-03-23 02:05:00,59.2,22.3,29.91,South,190,0.0,3.0,24,0.00,,,0.00,WUHU216DAVISVP2,2013-03-23 09:05:00,
2013-03-23 02:10:00,58.5,23.6,29.90,East,95,0.0,3.0,26,0.00,,,0.00,WUHU216DAVISVP2,2013-03-23 09:10:00,
2013-03-23 02:15:00,57.7,22.9,29.91,WNW,300,1.0,3.0,26,0.00,,,0.00,WUHU216DAVISVP2,2013-03-23 09:15:00,
2013-03-23 02:20:00,57.2,23.3,29.91,WNW,286,0.0,3.0,27,0.00,,,0.00,WUHU216DAVISVP2,2013-03-23 09:20:00,
2013-03-23 02:25:00,56.7,23.7,29.90,SSE,160,2.0,3.0,28,0.00,,,0.00,WUHU216DAVISVP2,2013-03-23 09:25:00,
2013-03-23 02:30:00,56.1,25.6,29.90,SW,229,2.0,4.0,31,0.00,,,0.00,WUHU216DAVISVP2,2013-03-23 09:30:00,
2013-03-23 02:35:00,55.8,27.8,29.90,SSW,207,2.0,4.0,34,0.00,,,0.00,WUHU216DAVISVP2,2013-03-23 09:35:00,
2013-03-23 02:40:00,55.5,28.1,29.90,SE,138,0.0,4.0,35,0.00,,,0.00,WUHU216DAVISVP2,2013-03-23 09:40:00,
2013-03-23 02:45:00,55.2,29.8,29.90,SSE,163,1.0,3.0,38,0.00,,,0.00,WUHU216DAVISVP2,2013-03-23 09:45:00,
2013-03-23 02:50:00,54.8,31.4,29.90,ESE,102,2.0,3.0,41,0.00,,,0.00,WUHU216DAVISVP2,2013-03-23 09:50:00,
2013-03-23 02:55:00,54.5,32.9,29.90,SSE,168,1.0,5.0,44,0.00,,,0.00,WUHU216DAVISVP2,2013-03-23 09:55:00,
2013-03-23 03:00:00,54.2,32.6,29.90,WSW,254,6.0,6.0,44,0.00,,,0.00,WUHU216DAVISVP2,2013-03-23 10:00:00,
2013-03-23 03:05:00,54.0,30.7,29.90,WSW,242,3.0,6.0,41,0.00,,,0.00,WUHU216DAVISVP2,2013-03-23 10:05:00,
2013-03-23 03:10:00,53.8,31.2,29.90,SSW,210,0.0,6.0,42,0.00,,,0.00,WUHU216DAVISVP2,2013-03-23 10:10:00,
2013-03-23 03:15:00,53.5,32.6,29.90,SSE,150,3.0,6.0,45,0.00,,,0.00,WUHU216DAVISVP2,2013-03-23 10:15:00,
2013-03-23 03:20:00,53.3,34.6,29.90,SSW,206,0.0,4.0,49,0.00,,,0.00,WUHU216DAVISVP2,2013-03-23 10:20:00,
2013-03-23 03:25:00,53.1,36.4,29.90,SE,126,4.0,4.0,53,0.00,,,0.00,WUHU216DAVISVP2,2013-03-23 10:25:00,
2013-03-23 03:30:00,52.9,38.2,29.90,SSW,192,2.0,5.0,57,0.00,,,0.00,WUHU216DAVISVP2,2013-03-23 10:30:00,
2013-03-23 03:35:00,52.8,38.5,29.90,SSW,196,1.0,5.0,58,0.00,,,0.00,WUHU216DAVISVP2,2013-03-23 10:35:00,
2013-03-23 03:40:00,52.6,37.4,29.90,SSE,149,3.0,5.0,56,0.00,,,0.00,WUHU216DAVISVP2,2013-03-23 10:40:00,
2013-03-23 03:45:00,52.4,37.2,29.91,SE,146,1.0,4.0,56,0.00,,,0.00,WUHU216DAVISVP2,2013-03-23 10:45:00,
2013-03-23 03:50:00,52.3,37.6,29.91,SE,124,2.0,4.0,57,0.00,,,0.00,WUHU216DAVISVP2,2013-03-23 10:50:00,
2013-03-23 03:55:00,52.1,37.9,29.90,SSE,167,0.0,4.0,58,0.00,,,0.00,WUHU216DAVISVP2,2013-03-23 10:55:00,
2013-03-23 04:00:00,51.9,38.1,29.91,SSE,161,1.0,4.0,59,0.00,,,0.00,WUHU216DAVISVP2,2013-03-23 11:00:00,
2013-03-23 04:05:00,51.7,39.2,29.91,SSE,153,1.0,4.0,62,0.00,,,0.00,WUHU216DAVISVP2,2013-03-23 11:05:00,
2013-03-23 04:10:00,51.5,41.4,29.90,East,86,0.0,4.0,68,0.00,,,0.00,WUHU216DAVISVP2,2013-03-23 11:10:00,
2013-03-23 04:15:00,51.5,43.2,29.91,ESE,107,0.0,4.0,73,0.00,,,0.00,WUHU216DAVISVP2,2013-03-23 11:15:00,
2013-03-23 04:20:00,51.3,43.7,29.91,NE,53,2.0,4.0,75,0.00,,,0.00,WUHU216DAVISVP2,2013-03-23 11:20:00,
2013-03-23 04:25:00,51.1,44.2,29.91,NE,46,1.0,5.0,77,0.00,,,0.00,WUHU216DAVISVP2,2013-03-23 11:25:00,
2013-03-23 04:30:00,50.9,44.3,29.91,ENE,74,1.0,5.0,78,0.00,,,0.00,WUHU216DAVISVP2,2013-03-23 11:30:00,
2013-03-23 04:35:00,50.6,44.3,29.91,ENE,74,0.0,4.0,79,0.00,,,0.00,WUHU216DAVISVP2,2013-03-23 11:35:00,
2013-03-23 04:40:00,50.4,44.5,29.91,ESE,122,1.0,4.0,80,0.00,,,0.00,WUHU216DAVISVP2,2013-03-23 11:40:00,
2013-03-23 04:45:00,50.2,44.6,29.92,SE,138,0.0,3.0,81,0.00,,,0.00,WUHU216DAVISVP2,2013-03-23 11:45:00,
2013-03-23 04:50:00,50.0,44.4,29.92,SE,138,0.0,3.0,81,0.00,,,0.00,WUHU216DAVISVP2,2013-03-23 11:50:00,
2013-03-23 04:55:00,49.8,44.2,29.92,SE,138,0.0,3.0,81,0.00,,,0.00,WUHU216DAVISVP2,2013-03-23 11:55:00,
2013-03-23 05:00:00,49.4,44.2,29.92,SE,138,0.0,3.0,82,0.00,,,0.00,WUHU216DAVISVP2,2013-03-23 12:00:00,
2013-03-23 05:05:00,49.3,44.1,29.92,SE,138,0.0,1.0,82,0.00,,,0.00,WUHU216DAVISVP2,2013-03-23 12:05:00,
2013-03-23 05:10:00,48.9,43.7,29.92,ENE,59,0.0,1.0,82,0.00,,,0.00,WUHU216DAVISVP2,2013-03-23 12:10:00,
2013-03-23 05:15:00,48.6,44.0,29.92,ENE,59,0.0,1.0,84,0.00,,,0.00,WUHU216DAVISVP2,2013-03-23 12:15:00,
2013-03-23 05:20:00,48.4,44.1,29.93,ENE,71,0.0,3.0,85,0.00,,,0.00,WUHU216DAVISVP2,2013-03-23 12:20:00,
2013-03-23 05:25:00,48.3,44.3,29.93,ENE,71,0.0,3.0,86,0.00,,,0.00,WUHU216DAVISVP2,2013-03-23 12:25:00,
2013-03-23 05:30:00,48.1,44.1,29.93,NE,38,0.0,3.0,86,0.00,,,0.00,WUHU216DAVISVP2,2013-03-23 12:30:00,
2013-03-23 05:35:00,47.9,44.5,29.93,NE,36,1.0,2.0,88,0.00,,,0.00,WUHU216DAVISVP2,2013-03-23 12:35:00,
2013-03-23 05:40:00,47.9,45.1,29.93,NE,36,0.0,3.0,90,0.00,,,0.00,WUHU216DAVISVP2,2013-03-23 12:40:00,
2013-03-23 05:45:00,47.9,45.1,29.94,NE,36,0.0,3.0,90,0.00,,,0.00,WUHU216DAVISVP2,2013-03-23 12:45:00,
2013-03-23 05:50:00,47.8,44.7,29.94,NE,36,0.0,3.0,89,0.00,,,0.00,WUHU216DAVISVP2,2013-03-23 12:50:00,
2013-03-23 05:55:00,47.7,44.9,29.93,NE,36,0.0,2.0,90,0.00,,,0.00,WUHU216DAVISVP2,2013-03-23 12:55:00,
2013-03-23 06:00:00,47.5,44.7,29.94,NE,36,0.0,2.0,90,0.00,,,0.00,WUHU216DAVISVP2,2013-03-23 13:00:00,
2013-03-23 06:05:00,47.3,44.5,29.94,NE,36,0.0,2.0,90,0.00,,,0.00,WUHU216DAVISVP2,2013-03-23 13:05:00,
2013-03-23 06:10:00,47.1,44.3,29.94,NE,36,0.0,0.0,90,0.00,,,0.00,WUHU216DAVISVP2,2013-03-23 13:10:00,
2013-03-23 06:15:00,46.9,44.1,29.94,NE,36,0.0,0.0,90,0.00,,,0.00,WUHU216DAVISVP2,2013-03-23 13:15:00,
2013-03-23 06:20:00,46.7,43.9,29.94,NE,36,0.0,0.0,90,0.00,,,0.00,WUHU216DAVISVP2,2013-03-23 13:20:00,
2013-03-23 06:25:00,46.4,43.9,29.94,NE,36,0.0,0.0,91,0.00,,,0.00,WUHU216DAVISVP2,2013-03-23 13:25:00,
2013-03-23 06:30:00,46.3,43.8,29.95,NE,36,0.0,0.0,91,0.00,,,0.00,WUHU216DAVISVP2,2013-03-23 13:30:00,
2013-03-23 06:35:00,46.1,43.6,29.95,NE,36,0.0,0.0,91,0.00,,,0.00,WUHU216DAVISVP2,2013-03-23 13:35:00,
2013-03-23 06:40:00,46.0,43.8,29.95,NE,36,0.0,0.0,92,0.00,,,0.00,WUHU216DAVISVP2,2013-03-23 13:40:00,
2013-03-23 06:45:00,45.8,43.3,29.95,NE,36,0.0,1.0,91,0.00,,,0.00,WUHU216DAVISVP2,2013-03-23 13:45:00,
2013-03-23 06:50:00,45.7,42.9,29.95,NE,36,0.0,1.0,90,0.00,,,0.00,WUHU216DAVISVP2,2013-03-23 13:50:00,
2013-03-23 06:55:00,45.4,42.6,29.95,NE,36,0.0,1.0,90,0.00,,,0.00,WUHU216DAVISVP2,2013-03-23 13:55:00,
2013-03-23 07:00:00,45.2,42.7,29.96,NE,36,2.0,2.0,91,0.00,,,0.00,WUHU216DAVISVP2,2013-03-23 14:00:00,
2013-03-23 07:05:00,45.0,42.2,29.96,NNE,32,0.0,2.0,90,0.00,,,0.00,WUHU216DAVISVP2,2013-03-23 14:05:00,
2013-03-23 07:10:00,44.8,42.0,29.96,NNE,32,0.0,2.0,90,0.00,,,0.00,WUHU216DAVISVP2,2013-03-23 14:10:00,
2013-03-23 07:15:00,44.7,42.2,29.97,NNE,32,0.0,2.0,91,0.00,,,0.00,WUHU216DAVISVP2,2013-03-23 14:15:00,
2013-03-23 07:20:00,44.7,42.2,29.97,NNE,32,0.0,2.0,91,0.00,,,0.00,WUHU216DAVISVP2,2013-03-23 14:20:00,
2013-03-23 07:25:00,44.6,42.1,29.97,NNE,32,0.0,0.0,91,0.00,,,0.00,WUHU216DAVISVP2,2013-03-23 14:25:00,
2013-03-23 07:30:00,44.7,42.5,29.97,NNE,32,0.0,0.0,92,0.00,,,0.00,WUHU216DAVISVP2,2013-03-23 14:30:00,
2013-03-23 07:35:00,44.8,42.6,29.97,NNE,32,1.0,1.0,92,0.00,,,0.00,WUHU216DAVISVP2,2013-03-23 14:35:00,
2013-03-23 07:40:00,44.8,42.6,29.97,NNE,32,0.0,2.0,92,0.00,,,0.00,WUHU216DAVISVP2,2013-03-23 14:40:00,
2013-03-23 07:45:00,45.1,43.2,29.98,NNE,32,0.0,2.0,93,0.00,,,0.00,WUHU216DAVISVP2,2013-03-23 14:45:00,
2013-03-23 07:50:00,45.3,43.4,29.98,NNE,32,0.0,2.0,93,0.00,,,0.00,WUHU216DAVISVP2,2013-03-23 14:50:00,
2013-03-23 07:55:00,45.7,43.8,29.98,NNE,32,0.0,2.0,93,0.00,,,0.00,WUHU216DAVISVP2,2013-03-23 14:55:00,
2013-03-23 08:00:00,46.2,44.6,29.98,NNE,32,0.0,2.0,94,0.00,,,0.00,WUHU216DAVISVP2,2013-03-23 15:00:00,
2013-03-23 08:06:00,46.9,45.0,29.98,NNE,32,0.0,1.0,93,0.00,,,0.00,WUHU216DAVISVP2,2013-03-23 15:06:00,
2013-03-23 08:11:00,47.6,45.4,29.98,ENE,77,0.0,2.0,92,0.00,,,0.00,WUHU216DAVISVP2,2013-03-23 15:11:00,
2013-03-23 08:16:00,48.2,45.7,29.98,ENE,74,0.0,2.0,91,0.00,,,0.00,WUHU216DAVISVP2,2013-03-23 15:16:00,
2013-03-23 08:21:00,49.0,45.9,29.99,SSE,168,0.0,3.0,89,0.00,,,0.00,WUHU216DAVISVP2,2013-03-23 15:21:00,
2013-03-23 08:26:00,50.1,46.4,29.99,ENE,64,1.0,3.0,87,0.00,,,0.00,WUHU216DAVISVP2,2013-03-23 15:26:00,
2013-03-23 08:31:00,50.5,46.5,29.99,ENE,59,1.0,3.0,86,0.00,,,0.00,WUHU216DAVISVP2,2013-03-23 15:31:00,
2013-03-23 08:36:00,52.2,47.5,29.99,ESE,114,1.0,3.0,84,0.00,,,0.00,WUHU216DAVISVP2,2013-03-23 15:36:00,
2013-03-23 08:41:00,53.0,47.7,29.99,NNE,27,2.0,3.0,82,0.00,,,0.00,WUHU216DAVISVP2,2013-03-23 15:41:00,
2013-03-23 08:46:00,53.9,48.2,30.00,NE,55,2.0,3.0,81,0.00,,,0.00,WUHU216DAVISVP2,2013-03-23 15:46:00,
2013-03-23 08:51:00,54.7,48.4,30.00,NE,38,3.0,3.0,79,0.00,,,0.00,WUHU216DAVISVP2,2013-03-23 15:51:00,
2013-03-23 08:56:00,55.3,49.0,30.00,East,81,2.0,3.0,79,0.00,,,0.00,WUHU216DAVISVP2,2013-03-23 15:56:00,
2013-03-23 09:01:00,55.9,49.2,29.99,East,84,0.0,3.0,78,0.00,,,0.00,WUHU216DAVISVP2,2013-03-23 16:01:00,
2013-03-23 09:06:00,56.4,49.4,30.00,ENE,68,2.0,4.0,77,0.00,,,0.00,WUHU216DAVISVP2,2013-03-23 16:06:00,
2013-03-23 09:11:00,57.3,49.5,30.00,ENE,75,1.0,4.0,75,0.00,,,0.00,WUHU216DAVISVP2,2013-03-23 16:11:00,
2013-03-23 09:16:00,58.0,49.9,30.00,NNE,14,0.0,4.0,74,0.00,,,0.00,WUHU216DAVISVP2,2013-03-23 16:16:00,
2013-03-23 09:21:00,58.9,49.6,30.00,ENE,64,3.0,4.0,71,0.00,,,0.00,WUHU216DAVISVP2,2013-03-23 16:21:00,
2013-03-23 09:26:00,59.5,49.8,30.01,ENE,63,0.0,5.0,70,0.00,,,0.00,WUHU216DAVISVP2,2013-03-23 16:26:00,
2013-03-23 09:31:00,60.2,50.1,30.01,North,10,1.0,5.0,69,0.00,,,0.00,WUHU216DAVISVP2,2013-03-23 16:31:00,
2013-03-23 09:36:00,60.9,50.0,30.00,SE,130,2.0,5.0,67,0.00,,,0.00,WUHU216DAVISVP2,2013-03-23 16:36:00,
2013-03-23 09:41:00,61.3,50.0,30.00,ENE,77,1.0,5.0,66,0.00,,,0.00,WUHU216DAVISVP2,2013-03-23 16:41:00,
2013-03-23 09:46:00,61.4,49.7,30.00,South,173,0.0,5.0,65,0.00,,,0.00,WUHU216DAVISVP2,2013-03-23 16:46:00,
2013-03-23 09:51:00,62.3,49.7,29.99,ENE,69,3.0,4.0,63,0.00,,,0.00,WUHU216DAVISVP2,2013-03-23 16:51:00,
2013-03-23 09:56:00,62.7,48.8,29.99,NE,51,2.0,5.0,60,0.00,,,0.00,WUHU216DAVISVP2,2013-03-23 16:56:00,
2013-03-23 10:01:00,63.1,48.7,30.00,ENE,77,0.0,5.0,59,0.00,,,0.00,WUHU216DAVISVP2,2013-03-23 17:01:00,
2013-03-23 10:06:00,63.7,48.3,30.00,NE,51,0.0,5.0,57,0.00,,,0.00,WUHU216DAVISVP2,2013-03-23 17:06:00,
2013-03-23 10:11:00,64.2,49.7,30.00,North,355,3.0,5.0,59,0.00,,,0.00,WUHU216DAVISVP2,2013-03-23 17:11:00,
2013-03-23 10:16:00,64.6,48.5,29.99,ENE,75,2.0,6.0,56,0.00,,,0.00,WUHU216DAVISVP2,2013-03-23 17:16:00,
2013-03-23 10:21:00,64.7,48.3,29.99,NE,39,3.0,6.0,55,0.00,,,0.00,WUHU216DAVISVP2,2013-03-23 17:21:00,
2013-03-23 10:26:00,65.0,48.0,29.98,NE,48,2.0,6.0,54,0.00,,,0.00,WUHU216DAVISVP2,2013-03-23 17:26:00,
2013-03-23 10:31:00,65.6,48.6,29.99,ENE,76,5.0,6.0,54,0.00,,,0.00,WUHU216DAVISVP2,2013-03-23 17:31:00,
2013-03-23 10:36:00,66.2,48.6,29.99,ESE,119,2.0,7.0,53,0.00,,,0.00,WUHU216DAVISVP2,2013-03-23 17:36:00,
2013-03-23 10:41:00,66.8,47.6,29.99,ESE,121,4.0,7.0,50,0.00,,,0.00,WUHU216DAVISVP2,2013-03-23 17:41:00,
2013-03-23 10:46:00,67.4,47.6,29.99,ESE,115,5.0,7.0,49,0.00,,,0.00,WUHU216DAVISVP2,2013-03-23 17:46:00,
2013-03-23 10:51:00,67.8,46.8,29.99,SE,126,2.0,7.0,47,0.00,,,0.00,WUHU216DAVISVP2,2013-03-23 17:51:00,
2013-03-23 10:56:00,68.4,46.2,29.99,ESE,122,3.0,6.0,45,0.00,,,0.00,WUHU216DAVISVP2,2013-03-23 17:56:00,
2013-03-23 11:01:00,69.0,46.1,29.99,ENE,63,3.0,6.0,44,0.00,,,0.00,WUHU216DAVISVP2,2013-03-23 18:01:00,
2013-03-23 11:06:00,69.4,45.9,29.99,East,85,2.0,5.0,43,0.00,,,0.00,WUHU216DAVISVP2,2013-03-23 18:06:00,
2013-03-23 11:11:00,69.9,45.0,29.99,SE,144,2.0,7.0,41,0.00,,,0.00,WUHU216DAVISVP2,2013-03-23 18:11:00,
2013-03-23 11:16:00,70.1,45.2,29.99,ENE,69,5.0,7.0,41,0.00,,,0.00,WUHU216DAVISVP2,2013-03-23 18:16:00,
2013-03-23 11:21:00,70.1,44.5,29.99,ENE,71,0.0,7.0,40,0.00,,,0.00,WUHU216DAVISVP2,2013-03-23 18:21:00,
2013-03-23 11:26:00,70.3,44.0,29.99,SSE,152,4.0,6.0,39,0.00,,,0.00,WUHU216DAVISVP2,2013-03-23 18:26:00,
2013-03-23 11:31:00,70.5,44.3,29.99,ESE,123,5.0,10.0,39,0.00,,,0.00,WUHU216DAVISVP2,2013-03-23 18:31:00,
2013-03-23 11:36:00,70.8,43.1,29.99,SSE,150,1.0,10.0,37,0.00,,,0.00,WUHU216DAVISVP2,2013-03-23 18:36:00,
2013-03-23 11:41:00,71.3,43.5,29.99,SSE,155,4.0,10.0,37,0.00,,,0.00,WUHU216DAVISVP2,2013-03-23 18:41:00,
2013-03-23 11:46:00,72.0,42.7,29.99,SE,144,1.0,10.0,35,0.00,,,0.00,WUHU216DAVISVP2,2013-03-23 18:46:00,
2013-03-23 11:51:00,72.6,41.8,29.99,East,90,2.0,7.0,33,0.00,,,0.00,WUHU216DAVISVP2,2013-03-23 18:51:00,
2013-03-23 11:56:00,73.2,43.0,29.99,SE,144,4.0,7.0,34,0.00,,,0.00,WUHU216DAVISVP2,2013-03-23 18:56:00,
2013-03-23 12:02:00,73.5,42.5,29.99,NNE,19,1.0,7.0,33,0.00,,,0.00,WUHU216DAVISVP2,2013-03-23 19:02:00,
2013-03-23 12:07:00,74.3,40.7,29.99,SE,135,4.0,7.0,30,0.00,,,0.00,WUHU216DAVISVP2,2013-03-23 19:07:00,
2013-03-23 12:12:00,74.7,41.0,29.99,South,174,1.0,7.0,30,0.00,,,0.00,WUHU216DAVISVP2,2013-03-23 19:12:00,
2013-03-23 12:17:00,75.1,39.8,29.99,SE,127,6.0,9.0,28,0.00,,,0.00,WUHU216DAVISVP2,2013-03-23 19:17:00,
2013-03-23 12:22:00,75.4,40.9,29.99,SE,132,2.0,9.0,29,0.00,,,0.00,WUHU216DAVISVP2,2013-03-23 19:22:00,
2013-03-23 12:27:00,75.7,40.1,29.99,NE,44,2.0,9.0,28,0.00,,,0.00,WUHU216DAVISVP2,2013-03-23 19:27:00,
2013-03-23 12:32:00,75.9,41.2,29.99,ESE,105,2.0,9.0,29,0.00,,,0.00,WUHU216DAVISVP2,2013-03-23 19:32:00,
2013-03-23 12:37:00,76.2,39.6,29.99,ENE,67,2.0,7.0,27,0.00,,,0.00,WUHU216DAVISVP2,2013-03-23 19:37:00,
2013-03-23 12:42:00,76.3,39.7,29.99,ESE,115,4.0,7.0,27,0.00,,,0.00,WUHU216DAVISVP2,2013-03-23 19:42:00,
2013-03-23 12:47:00,76.5,41.0,29.98,East,97,2.0,7.0,28,0.00,,,0.00,WUHU216DAVISVP2,2013-03-23 19:47:00,
2013-03-23 12:52:00,76.5,40.0,29.98,SE,142,1.0,6.0,27,0.00,,,0.00,WUHU216DAVISVP2,2013-03-23 19:52:00,
2013-03-23 12:57:00,76.9,41.3,29.98,East,96,2.0,9.0,28,0.00,,,0.00,WUHU216DAVISVP2,2013-03-23 19:57:00,
2013-03-23 13:02:00,77.3,40.7,29.98,NE,49,2.0,9.0,27,0.00,,,0.00,WUHU216DAVISVP2,2013-03-23 20:02:00,
2013-03-23 13:07:00,77.6,39.9,29.98,ESE,111,2.0,9.0,26,0.00,,,0.00,WUHU216DAVISVP2,2013-03-23 20:07:00,
2013-03-23 13:12:00,78.1,39.3,29.98,SW,219,1.0,9.0,25,0.00,,,0.00,WUHU216DAVISVP2,2013-03-23 20:12:00,
2013-03-23 13:17:00,78.5,40.6,29.97,ESE,123,2.0,7.0,26,0.00,,,0.00,WUHU216DAVISVP2,2013-03-23 20:17:00,
2013-03-23 13:22:00,79.1,39.1,29.97,SE,124,4.0,7.0,24,0.00,,,0.00,WUHU216DAVISVP2,2013-03-23 20:22:00,
2013-03-23 13:27:00,79.3,38.2,29.97,ENE,63,1.0,7.0,23,0.00,,,0.00,WUHU216DAVISVP2,2013-03-23 20:27:00,
2013-03-23 13:32:00,79.7,38.6,29.97,SSE,162,1.0,7.0,23,0.00,,,0.00,WUHU216DAVISVP2,2013-03-23 20:32:00,
2013-03-23 13:37:00,79.7,37.4,29.96,ENE,67,3.0,7.0,22,0.00,,,0.00,WUHU216DAVISVP2,2013-03-23 20:37:00,
2013-03-23 13:42:00,79.8,37.5,29.96,South,182,3.0,6.0,22,0.00,,,0.00,WUHU216DAVISVP2,2013-03-23 20:42:00,
2013-03-23 13:47:00,79.9,38.7,29.95,SW,236,2.0,9.0,23,0.00,,,0.00,WUHU216DAVISVP2,2013-03-23 20:47:00,
2013-03-23 13:52:00,80.1,38.9,29.95,SSE,164,2.0,9.0,23,0.00,,,0.00,WUHU216DAVISVP2,2013-03-23 20:52:00,
2013-03-23 13:57:00,80.3,35.5,29.95,SE,141,2.0,12.0,20,0.00,,,0.00,WUHU216DAVISVP2,2013-03-23 20:57:00,
2013-03-23 14:02:00,80.6,34.5,29.95,ENE,65,2.0,12.0,19,0.00,,,0.00,WUHU216DAVISVP2,2013-03-23 21:02:00,
2013-03-23 14:07:00,80.9,41.7,29.95,ESE,111,4.0,12.0,25,0.00,,,0.00,WUHU216DAVISVP2,2013-03-23 21:07:00,
2013-03-23 14:12:00,81.0,39.7,29.94,NE,44,6.0,11.0,23,0.00,,,0.00,WUHU216DAVISVP2,2013-03-23 21:12:00,
2013-03-23 14:17:00,80.7,42.6,29.94,SE,136,6.0,11.0,26,0.00,,,0.00,WUHU216DAVISVP2,2013-03-23 21:17:00,
2013-03-23 14:22:00,80.3,42.2,29.93,ENE,74,3.0,11.0,26,0.00,,,0.00,WUHU216DAVISVP2,2013-03-23 21:22:00,
2013-03-23 14:27:00,80.0,40.9,29.94,NE,41,6.0,11.0,25,0.00,,,0.00,WUHU216DAVISVP2,2013-03-23 21:27:00,
2013-03-23 14:32:00,80.0,41.9,29.93,NNE,27,5.0,11.0,26,0.00,,,0.00,WUHU216DAVISVP2,2013-03-23 21:32:00,
2013-03-23 14:37:00,80.2,40.0,29.93,East,84,5.0,11.0,24,0.00,,,0.00,WUHU216DAVISVP2,2013-03-23 21:37:00,
2013-03-23 14:42:00,80.5,43.3,29.93,NE,54,2.0,9.0,27,0.00,,,0.00,WUHU216DAVISVP2,2013-03-23 21:42:00,
2013-03-23 14:47:00,80.7,40.5,29.93,ENE,74,2.0,9.0,24,0.00,,,0.00,WUHU216DAVISVP2,2013-03-23 21:47:00,
2013-03-23 14:52:00,80.8,40.6,29.93,East,101,2.0,9.0,24,0.00,,,0.00,WUHU216DAVISVP2,2013-03-23 21:52:00,
2013-03-23 14:57:00,81.0,39.7,29.93,ESE,111,2.0,11.0,23,0.00,,,0.00,WUHU216DAVISVP2,2013-03-23 21:57:00,
2013-03-23 15:02:00,81.4,37.7,29.93,North,5,3.0,11.0,21,0.00,,,0.00,WUHU216DAVISVP2,2013-03-23 22:02:00,
2013-03-23 15:07:00,81.7,39.1,29.93,ENE,63,2.0,11.0,22,0.00,,,0.00,WUHU216DAVISVP2,2013-03-23 22:07:00,
2013-03-23 15:12:00,81.8,40.3,29.93,ENE,65,3.0,11.0,23,0.00,,,0.00,WUHU216DAVISVP2,2013-03-23 22:12:00,
2013-03-23 15:17:00,81.6,40.1,29.93,ENE,69,5.0,9.0,23,0.00,,,0.00,WUHU216DAVISVP2,2013-03-23 22:17:00,
2013-03-23 15:22:00,81.5,38.9,29.93,North,5,2.0,9.0,22,0.00,,,0.00,WUHU216DAVISVP2,2013-03-23 22:22:00,
2013-03-23 15:27:00,81.8,41.4,29.92,ESE,113,8.0,9.0,24,0.00,,,0.00,WUHU216DAVISVP2,2013-03-23 22:27:00,
2013-03-23 15:32:00,81.9,41.5,29.92,ENE,63,0.0,8.0,24,0.00,,,0.00,WUHU216DAVISVP2,2013-03-23 22:32:00,
2013-03-23 15:37:00,82.1,40.6,29.92,ENE,65,3.0,8.0,23,0.00,,,0.00,WUHU216DAVISVP2,2013-03-23 22:37:00,
2013-03-23 15:42:00,82.4,40.8,29.92,East,84,6.0,8.0,23,0.00,,,0.00,WUHU216DAVISVP2,2013-03-23 22:42:00,
2013-03-23 15:47:00,82.4,44.0,29.92,ESE,104,2.0,7.0,26,0.00,,,0.00,WUHU216DAVISVP2,2013-03-23 22:47:00,
2013-03-23 15:52:00,82.3,43.9,29.92,ENE,76,3.0,7.0,26,0.00,,,0.00,WUHU216DAVISVP2,2013-03-23 22:52:00,
2013-03-23 15:57:00,81.5,45.2,29.92,North,5,7.0,9.0,28,0.00,,,0.00,WUHU216DAVISVP2,2013-03-23 22:57:00,
2013-03-23 16:02:00,81.0,47.4,29.92,SSE,161,3.0,9.0,31,0.00,,,0.00,WUHU216DAVISVP2,2013-03-23 23:02:00,
2013-03-23 16:07:00,80.6,47.0,29.92,ESE,113,5.0,9.0,31,0.00,,,0.00,WUHU216DAVISVP2,2013-03-23 23:07:00,
2013-03-23 16:12:00,80.2,47.7,29.92,ESE,123,3.0,8.0,32,0.00,,,0.00,WUHU216DAVISVP2,2013-03-23 23:12:00,
2013-03-23 16:17:00,79.8,47.2,29.92,SSE,153,3.0,7.0,32,0.00,,,0.00,WUHU216DAVISVP2,2013-03-23 23:17:00,
2013-03-23 16:22:00,79.4,46.8,29.92,East,86,2.0,9.0,32,0.00,,,0.00,WUHU216DAVISVP2,2013-03-23 23:22:00,
2013-03-23 16:27:00,79.1,48.2,29.92,ENE,77,0.0,9.0,34,0.00,,,0.00,WUHU216DAVISVP2,2013-03-23 23:27:00,
2013-03-23 16:33:00,79.1,47.5,29.92,SSE,167,3.0,9.0,33,0.00,,,0.00,WUHU216DAVISVP2,2013-03-23 23:33:00,
2013-03-23 16:38:00,78.8,47.1,29.92,SE,130,3.0,9.0,33,0.00,,,0.00,WUHU216DAVISVP2,2013-03-23 23:38:00,
2013-03-23 16:42:00,78.8,48.1,29.92,NE,53,1.0,7.0,34,0.00,,,0.00,WUHU216DAVISVP2,2013-03-23 23:42:00,
2013-03-23 16:47:00,78.5,46.8,29.92,East,101,0.0,6.0,33,0.00,,,0.00,WUHU216DAVISVP2,2013-03-23 23:47:00,
2013-03-23 16:52:00,78.5,46.8,29.92,NNW,339,2.0,6.0,33,0.00,,,0.00,WUHU216DAVISVP2,2013-03-23 23:52:00,
2013-03-23 16:57:00,78.4,46.1,29.92,West,271,4.0,6.0,32,0.00,,,0.00,WUHU216DAVISVP2,2013-03-23 23:57:00,
2013-03-23 17:02:00,77.9,46.3,29.92,West,278,3.0,6.0,33,0.00,,,0.00,WUHU216DAVISVP2,2013-03-24 00:02:00,
2013-03-23 17:07:00,77.5,46.8,29.92,WNW,302,2.0,8.0,34,0.00,,,0.00,WUHU216DAVISVP2,2013-03-24 00:07:00,
2013-03-23 17:12:00,76.9,46.2,29.92,WNW,298,3.0,8.0,34,0.00,,,0.00,WUHU216DAVISVP2,2013-03-24 00:12:00,
2013-03-23 17:17:00,76.5,46.8,29.92,WSW,250,0.0,8.0,35,0.00,,,0.00,WUHU216DAVISVP2,2013-03-24 00:17:00,
2013-03-23 17:22:00,76.0,45.4,29.92,WSW,246,4.0,8.0,34,0.00,,,0.00,WUHU216DAVISVP2,2013-03-24 00:22:00,
2013-03-23 17:27:00,75.6,45.1,29.93,WNW,282,2.0,8.0,34,0.00,,,0.00,WUHU216DAVISVP2,2013-03-24 00:27:00,
2013-03-23 17:32:00,74.8,44.4,29.93,NNW,342,1.0,8.0,34,0.00,,,0.00,WUHU216DAVISVP2,2013-03-24 00:32:00,
2013-03-23 17:37:00,74.2,43.1,29.93,WNW,293,4.0,8.0,33,0.00,,,0.00,WUHU216DAVISVP2,2013-03-24 00:37:00,
2013-03-23 17:42:00,73.2,41.4,29.93,WNW,286,2.0,8.0,32,0.00,,,0.00,WUHU216DAVISVP2,2013-03-24 00:42:00,
2013-03-23 17:47:00,72.4,40.9,29.93,NW,306,3.0,8.0,32,0.00,,,0.00,WUHU216DAVISVP2,2013-03-24 00:47:00,
2013-03-23 17:52:00,71.7,40.3,29.93,WNW,293,4.0,8.0,32,0.00,,,0.00,WUHU216DAVISVP2,2013-03-24 00:52:00,
2013-03-23 17:58:00,71.4,40.0,29.93,NW,306,2.0,8.0,32,0.00,,,0.00,WUHU216DAVISVP2,2013-03-24 00:58:00,
2013-03-23 18:03:00,70.6,39.9,29.94,West,281,3.0,8.0,33,0.00,,,0.00,WUHU216DAVISVP2,2013-03-24 01:03:00,
2013-03-23 18:08:00,70.1,39.5,29.94,WSW,252,4.0,8.0,33,0.00,,,0.00,WUHU216DAVISVP2,2013-03-24 01:08:00,
2013-03-23 18:13:00,69.8,40.0,29.94,WNW,295,5.0,8.0,34,0.00,,,0.00,WUHU216DAVISVP2,2013-03-24 01:13:00,
2013-03-23 18:18:00,69.5,39.1,29.94,NW,311,2.0,8.0,33,0.00,,,0.00,WUHU216DAVISVP2,2013-03-24 01:18:00,
2013-03-23 18:23:00,69.2,38.9,29.94,WNW,288,3.0,12.0,33,0.00,,,0.00,WUHU216DAVISVP2,2013-03-24 01:23:00,
2013-03-23 18:28:00,68.7,38.4,29.94,WNW,287,5.0,12.0,33,0.00,,,0.00,WUHU216DAVISVP2,2013-03-24 01:28:00,
2013-03-23 18:33:00,68.3,38.1,29.95,NW,313,2.0,12.0,33,0.00,,,0.00,WUHU216DAVISVP2,2013-03-24 01:33:00,
2013-03-23 18:38:00,68.0,37.6,29.94,West,273,4.0,12.0,33,0.00,,,0.00,WUHU216DAVISVP2,2013-03-24 01:38:00,
2013-03-23 18:43:00,67.7,35.0,29.94,NW,319,1.0,9.0,30,0.00,,,0.00,WUHU216DAVISVP2,2013-03-24 01:43:00,
2013-03-23 18:48:00,67.5,34.8,29.94,WNW,299,3.0,9.0,30,0.00,,,0.00,WUHU216DAVISVP2,2013-03-24 01:48:00,
2013-03-23 18:53:00,67.3,34.6,29.94,West,278,2.0,7.0,30,0.00,,,0.00,WUHU216DAVISVP2,2013-03-24 01:53:00,
2013-03-23 18:58:00,67.0,34.3,29.95,West,271,1.0,7.0,30,0.00,,,0.00,WUHU216DAVISVP2,2013-03-24 01:58:00,
2013-03-23 19:03:00,66.8,35.0,29.95,WNW,288,0.0,6.0,31,0.00,,,0.00,WUHU216DAVISVP2,2013-03-24 02:03:00,
2013-03-23 19:08:00,66.6,35.8,29.95,WSW,244,2.0,6.0,32,0.00,,,0.00,WUHU216DAVISVP2,2013-03-24 02:08:00,
2013-03-23 19:13:00,66.4,34.6,29.95,WSW,257,3.0,5.0,31,0.00,,,0.00,WUHU216DAVISVP2,2013-03-24 02:13:00,
2013-03-23 19:18:00,66.3,34.6,29.95,West,263,3.0,6.0,31,0.00,,,0.00,WUHU216DAVISVP2,2013-03-24 02:18:00,
2013-03-23 19:23:00,66.2,34.5,29.95,West,265,2.0,6.0,31,0.00,,,0.00,WUHU216DAVISVP2,2013-03-24 02:23:00,
2013-03-23 19:28:00,66.1,35.2,29.96,WSW,253,2.0,6.0,32,0.00,,,0.00,WUHU216DAVISVP2,2013-03-24 02:28:00,
2013-03-23 19:33:00,65.9,34.2,29.96,WSW,250,2.0,7.0,31,0.00,,,0.00,WUHU216DAVISVP2,2013-03-24 02:33:00,
2013-03-23 19:38:00,65.6,34.7,29.96,WSW,250,1.0,7.0,32,0.00,,,0.00,WUHU216DAVISVP2,2013-03-24 02:38:00,
2013-03-23 19:43:00,65.3,34.5,29.96,SW,234,2.0,7.0,32,0.00,,,0.00,WUHU216DAVISVP2,2013-03-24 02:43:00,
2013-03-23 19:48:00,65.0,34.2,29.96,West,266,1.0,6.0,32,0.00,,,0.00,WUHU216DAVISVP2,2013-03-24 02:48:00,
2013-03-23 19:53:00,64.7,34.1,29.96,WSW,258,1.0,6.0,32,0.00,,,0.00,WUHU216DAVISVP2,2013-03-24 02:53:00,
2013-03-23 19:58:00,64.3,34.4,29.96,West,262,3.0,6.0,33,0.00,,,0.00,WUHU216DAVISVP2,2013-03-24 02:58:00,
2013-03-23 20:03:00,64.0,35.0,29.96,SW,236,2.0,5.0,34,0.00,,,0.00,WUHU216DAVISVP2,2013-03-24 03:03:00,
2013-03-23 20:08:00,63.7,34.8,29.96,SW,233,0.0,4.0,34,0.00,,,0.00,WUHU216DAVISVP2,2013-03-24 03:08:00,
2013-03-23 20:13:00,63.3,34.4,29.97,WSW,241,3.0,5.0,34,0.00,,,0.00,WUHU216DAVISVP2,2013-03-24 03:13:00,
2013-03-23 20:18:00,63.0,35.4,29.97,WSW,252,1.0,5.0,36,0.00,,,0.00,WUHU216DAVISVP2,2013-03-24 03:18:00,
2013-03-23 20:23:00,62.7,35.2,29.97,WSW,251,0.0,5.0,36,0.00,,,0.00,WUHU216DAVISVP2,2013-03-24 03:23:00,
2013-03-23 20:28:00,62.3,35.5,29.98,WNW,284,1.0,5.0,37,0.00,,,0.00,WUHU216DAVISVP2,2013-03-24 03:28:00,
2013-03-23 20:33:00,62.1,36.2,29.98,West,281,2.0,6.0,38,0.00,,,0.00,WUHU216DAVISVP2,2013-03-24 03:33:00,
2013-03-23 20:38:00,62.0,36.7,29.98,West,281,0.0,6.0,39,0.00,,,0.00,WUHU216DAVISVP2,2013-03-24 03:38:00,
2013-03-23 20:43:00,61.8,37.1,29.98,WNW,286,0.0,6.0,40,0.00,,,0.00,WUHU216DAVISVP2,2013-03-24 03:43:00,
2013-03-23 20:48:00,61.5,37.4,29.98,West,267,0.0,6.0,41,0.00,,,0.00,WUHU216DAVISVP2,2013-03-24 03:48:00,
2013-03-23 20:53:00,61.0,37.6,29.98,West,267,0.0,2.0,42,0.00,,,0.00,WUHU216DAVISVP2,2013-03-24 03:53:00,
2013-03-23 21:00:00,60.4,37.7,29.98,West,267,0.0,3.0,43,0.00,,,0.00,WUHU216DAVISVP2,2013-03-24 04:00:00,
2013-03-23 21:05:00,59.9,37.8,29.98,West,267,0.0,3.0,44,0.00,,,0.00,WUHU216DAVISVP2,2013-03-24 04:05:00,
2013-03-23 21:10:00,59.4,38.5,29.98,West,267,0.0,3.0,46,0.00,,,0.00,WUHU216DAVISVP2,2013-03-24 04:10:00,
2013-03-23 21:15:00,59.1,38.3,29.98,WSW,245,3.0,3.0,46,0.00,,,0.00,WUHU216DAVISVP2,2013-03-24 04:15:00,
2013-03-23 21:20:00,59.0,38.2,29.99,WSW,255,1.0,4.0,46,0.00,,,0.00,WUHU216DAVISVP2,2013-03-24 04:20:00,
2013-03-23 21:25:00,58.9,38.7,29.99,WNW,290,1.0,4.0,47,0.00,,,0.00,WUHU216DAVISVP2,2013-03-24 04:25:00,
2013-03-23 21:30:00,59.0,39.3,29.99,West,271,0.0,4.0,48,0.00,,,0.00,WUHU216DAVISVP2,2013-03-24 04:30:00,
2013-03-23 21:35:00,58.9,39.8,29.99,WSW,254,0.0,4.0,49,0.00,,,0.00,WUHU216DAVISVP2,2013-03-24 04:35:00,
2013-03-23 21:40:00,58.8,39.7,30.00,WSW,254,1.0,3.0,49,0.00,,,0.00,WUHU216DAVISVP2,2013-03-24 04:40:00,
2013-03-23 21:45:00,58.6,40.0,30.00,WSW,254,0.0,3.0,50,0.00,,,0.00,WUHU216DAVISVP2,2013-03-24 04:45:00,
2013-03-23 21:50:00,58.3,40.3,30.00,WSW,254,0.0,3.0,51,0.00,,,0.00,WUHU216DAVISVP2,2013-03-24 04:50:00,
2013-03-23 21:55:00,58.0,40.0,30.00,WSW,254,0.0,2.0,51,0.00,,,0.00,WUHU216DAVISVP2,2013-03-24 04:55:00,
2013-03-23 22:00:00,57.6,40.6,30.00,WSW,254,0.0,1.0,53,0.00,,,0.00,WUHU216DAVISVP2,2013-03-24 05:00:00,
2013-03-23 22:05:00,57.3,40.3,30.00,WSW,254,0.0,1.0,53,0.00,,,0.00,WUHU216DAVISVP2,2013-03-24 05:05:00,
2013-03-23 22:10:00,57.0,40.5,30.00,WSW,254,0.0,1.0,54,0.00,,,0.00,WUHU216DAVISVP2,2013-03-24 05:10:00,
2013-03-23 22:15:00,56.8,40.4,30.00,WSW,254,0.0,1.0,54,0.00,,,0.00,WUHU216DAVISVP2,2013-03-24 05:15:00,
2013-03-23 22:20:00,56.5,40.6,30.00,WSW,254,1.0,1.0,55,0.00,,,0.00,WUHU216DAVISVP2,2013-03-24 05:20:00,
2013-03-23 22:25:00,56.2,40.3,30.00,WSW,254,0.0,1.0,55,0.00,,,0.00,WUHU216DAVISVP2,2013-03-24 05:25:00,
2013-03-23 22:30:00,55.8,40.9,30.00,WSW,254,0.0,1.0,57,0.00,,,0.00,WUHU216DAVISVP2,2013-03-24 05:30:00,
2013-03-23 22:35:00,55.6,40.7,30.00,WSW,254,0.0,1.0,57,0.00,,,0.00,WUHU216DAVISVP2,2013-03-24 05:35:00,
2013-03-23 22:40:00,55.4,40.4,30.00,WSW,254,0.0,1.0,57,0.00,,,0.00,WUHU216DAVISVP2,2013-03-24 05:40:00,
2013-03-23 22:45:00,55.2,40.3,30.00,WSW,254,0.0,1.0,57,0.00,,,0.00,WUHU216DAVISVP2,2013-03-24 05:45:00,
2013-03-23 22:50:00,54.9,40.5,30.00,WSW,254,0.0,1.0,58,0.00,,,0.00,WUHU216DAVISVP2,2013-03-24 05:50:00,
2013-03-23 22:55:00,54.6,40.2,30.00,WSW,254,1.0,1.0,58,0.00,,,0.00,WUHU216DAVISVP2,2013-03-24 05:55:00,
2013-03-23 23:00:00,54.4,40.5,30.00,WSW,254,0.0,2.0,59,0.00,,,0.00,WUHU216DAVISVP2,2013-03-24 06:00:00,
2013-03-23 23:05:00,54.2,40.7,30.00,WSW,254,0.0,2.0,60,0.00,,,0.00,WUHU216DAVISVP2,2013-03-24 06:05:00,
2013-03-23 23:10:00,54.0,41.0,30.00,WSW,254,0.0,2.0,61,0.00,,,0.00,WUHU216DAVISVP2,2013-03-24 06:10:00,
2013-03-23 23:15:00,53.7,40.7,30.00,WSW,254,0.0,1.0,61,0.00,,,0.00,WUHU216DAVISVP2,2013-03-24 06:15:00,
2013-03-23 23:20:00,53.4,40.7,30.00,WSW,254,0.0,1.0,62,0.00,,,0.00,WUHU216DAVISVP2,2013-03-24 06:20:00,
2013-03-23 23:25:00,53.2,40.6,30.00,WSW,254,0.0,1.0,62,0.00,,,0.00,WUHU216DAVISVP2,2013-03-24 06:25:00,
2013-03-23 23:30:00,53.0,40.9,30.00,WSW,254,0.0,0.0,63,0.00,,,0.00,WUHU216DAVISVP2,2013-03-24 06:30:00,
2013-03-23 23:35:00,52.7,41.0,30.00,WSW,254,0.0,0.0,64,0.00,,,0.00,WUHU216DAVISVP2,2013-03-24 06:35:00,
2013-03-23 23:40:00,52.5,41.1,30.00,WSW,254,0.0,0.0,65,0.00,,,0.00,WUHU216DAVISVP2,2013-03-24 06:40:00,
2013-03-23 23:45:00,52.3,41.0,30.00,WSW,254,0.0,0.0,65,0.00,,,0.00,WUHU216DAVISVP2,2013-03-24 06:45:00,
2013-03-23 23:50:00,52.1,40.8,30.00,WSW,254,0.0,0.0,65,0.00,,,0.00,WUHU216DAVISVP2,2013-03-24 06:50:00,
2013-03-23 23:55:00,52.0,41.5,30.00,WSW,254,0.0,1.0,67,0.00,,,0.00,WUHU216DAVISVP2,2013-03-24 06:55:00,